createdAt,value
2023-05-15T00:01:19.671Z,0.65
2023-05-15T00:03:46.294Z,0.70
2023-05-15T00:06:12.994Z,0.75
2023-05-15T00:08:39.735Z,0.70
2023-05-15T00:11:06.388Z,1.00
2023-05-15T00:13:32.925Z,0.60
2023-05-15T00:15:59.644Z,0.93
2023-05-15T00:18:26.325Z,0.90
2023-05-15T00:20:53.517Z,0.63
2023-05-15T00:23:20.097Z,0.90
2023-05-15T00:25:46.613Z,0.80
2023-05-15T00:28:13.190Z,0.90
2023-05-15T00:30:39.887Z,0.70
2023-05-15T00:33:06.959Z,0.90
2023-05-15T00:35:33.570Z,0.70
2023-05-15T00:38:00.143Z,0.80
2023-05-15T00:40:27.737Z,0.80
2023-05-15T00:42:54.635Z,0.90
2023-05-15T00:45:22.237Z,0.70
2023-05-15T00:47:49.848Z,0.80
2023-05-15T00:50:17.013Z,0.73
2023-05-15T00:52:43.878Z,0.85
2023-05-15T00:55:10.489Z,0.70
2023-05-15T00:57:37.773Z,0.90
2023-05-15T01:00:10.266Z,0.80
2023-05-15T01:02:37.614Z,0.90
2023-05-15T01:05:05.246Z,0.70
2023-05-15T01:07:35.431Z,0.80
2023-05-15T01:10:04.339Z,0.70
2023-05-15T01:12:32.244Z,0.70
2023-05-15T01:14:58.929Z,0.82
2023-05-15T01:17:25.481Z,0.80
2023-05-15T01:19:52.734Z,0.80
2023-05-15T01:22:34.214Z,0.70
2023-05-15T01:25:10.397Z,0.80
2023-05-15T01:27:45.566Z,0.70
2023-05-15T01:30:20.112Z,0.80
2023-05-15T01:32:53.732Z,0.90
2023-05-15T01:35:23.611Z,0.70
2023-05-15T01:37:57.040Z,0.90
2023-05-15T01:40:24.250Z,0.70
2023-05-15T01:43:05.996Z,0.65
2023-05-15T01:45:33.376Z,0.75
2023-05-15T01:48:00.753Z,0.70
2023-05-15T01:50:28.033Z,0.80
2023-05-15T01:52:56.820Z,0.90
2023-05-15T01:55:25.211Z,0.80
2023-05-15T01:57:52.683Z,0.70
2023-05-15T02:00:20.604Z,0.80
2023-05-15T02:02:47.976Z,0.70
2023-05-15T02:05:14.828Z,0.80
2023-05-15T02:07:43.247Z,0.70
2023-05-15T02:10:12.135Z,0.90
2023-05-15T02:12:40.968Z,0.60
2023-05-15T02:15:11.663Z,0.77
2023-05-15T02:17:38.333Z,0.80
2023-05-15T02:20:08.569Z,0.70
2023-05-15T02:22:35.055Z,0.80
2023-05-15T02:25:01.952Z,0.70
2023-05-15T02:27:34.607Z,0.80
2023-05-15T02:30:40.634Z,0.70
2023-05-15T02:33:29.170Z,0.70
2023-05-15T02:36:27.884Z,0.70
2023-05-15T02:38:55.612Z,0.60
2023-05-15T02:41:23.160Z,0.70
2023-05-15T02:43:51.157Z,0.70
2023-05-15T02:46:19.074Z,0.82
2023-05-15T02:48:46.050Z,0.60
2023-05-15T02:51:12.764Z,0.70
2023-05-15T02:53:40.896Z,0.70
2023-05-15T02:56:08.314Z,0.80
2023-05-15T02:58:35.206Z,0.90
2023-05-15T03:01:01.788Z,0.90
2023-05-15T03:03:28.352Z,0.77
2023-05-15T03:05:54.881Z,0.75
2023-05-15T03:08:21.908Z,0.82
2023-05-15T03:10:48.472Z,0.80
2023-05-15T03:13:15.080Z,0.80
2023-05-15T03:15:44.360Z,0.80
2023-05-15T03:18:11.156Z,0.80
2023-05-15T03:20:37.732Z,0.82
2023-05-15T03:23:04.259Z,0.85
2023-05-15T03:25:30.841Z,0.60
2023-05-15T03:27:57.451Z,0.80
2023-05-15T03:30:23.963Z,0.80
2023-05-15T03:32:50.610Z,0.93
2023-05-15T03:35:18.277Z,0.70
2023-05-15T03:37:44.857Z,0.85
2023-05-15T03:40:12.240Z,0.70
2023-05-15T03:42:38.774Z,0.70
2023-05-15T03:45:05.830Z,0.75
2023-05-15T03:47:32.432Z,0.80
2023-05-15T03:49:58.966Z,0.85
2023-05-15T03:52:25.632Z,0.77
2023-05-15T03:54:52.171Z,0.88
2023-05-15T03:57:18.745Z,1.00
2023-05-15T03:59:45.299Z,0.90
2023-05-15T04:02:11.936Z,0.70
2023-05-15T04:04:38.851Z,0.80
2023-05-15T04:07:06.056Z,0.80
2023-05-15T04:09:32.564Z,0.70
2023-05-15T04:11:59.161Z,0.90
2023-05-15T04:14:25.758Z,0.77
2023-05-15T04:16:52.502Z,0.80
2023-05-15T04:19:19.363Z,0.73
2023-05-15T04:21:46.049Z,0.90
2023-05-15T04:24:12.646Z,0.70
2023-05-15T04:26:39.338Z,0.73
2023-05-15T04:29:06.048Z,0.80
2023-05-15T04:31:32.931Z,0.80
2023-05-15T04:33:59.629Z,0.90
2023-05-15T04:36:26.232Z,0.63
2023-05-15T04:38:52.819Z,0.70
2023-05-15T04:41:21.565Z,0.80
2023-05-15T04:43:48.161Z,0.93
2023-05-15T04:46:14.845Z,0.70
2023-05-15T04:48:41.479Z,0.73
2023-05-15T04:51:07.995Z,0.80
2023-05-15T04:53:34.587Z,0.70
2023-05-15T04:56:01.228Z,0.70
2023-05-15T04:58:27.839Z,0.70
2023-05-15T05:00:54.485Z,1.35
2023-05-15T05:03:21.090Z,0.80
2023-05-15T05:05:47.625Z,0.63
2023-05-15T05:08:14.170Z,0.80
2023-05-15T05:10:40.690Z,0.80
2023-05-15T05:13:07.292Z,0.95
2023-05-15T05:15:33.892Z,0.75
2023-05-15T05:18:00.560Z,0.80
2023-05-15T05:20:27.106Z,1.00
2023-05-15T05:22:53.683Z,0.60
2023-05-15T05:25:20.623Z,0.90
2023-05-15T05:27:47.202Z,0.80
2023-05-15T05:30:13.980Z,0.70
2023-05-15T05:32:40.715Z,0.80
2023-05-15T05:35:07.703Z,0.80
2023-05-15T05:37:34.389Z,0.80
2023-05-15T05:40:01.144Z,0.80
2023-05-15T05:42:27.918Z,0.75
2023-05-15T05:44:54.467Z,0.90
2023-05-15T05:47:21.402Z,0.80
2023-05-15T05:49:48.248Z,0.82
2023-05-15T05:52:16.082Z,0.80
2023-05-15T05:54:43.102Z,0.90
2023-05-15T05:57:09.859Z,0.80
2023-05-15T05:59:37.365Z,0.70
2023-05-15T06:02:04.740Z,0.70
2023-05-15T06:04:33.301Z,0.80
2023-05-15T06:06:59.939Z,1.10
2023-05-15T06:09:26.574Z,0.75
2023-05-15T06:11:53.124Z,0.80
2023-05-15T06:14:20.679Z,0.82
2023-05-15T06:16:48.072Z,0.70
2023-05-15T06:19:14.864Z,0.80
2023-05-15T06:21:41.527Z,0.80
2023-05-15T06:24:11.123Z,0.75
2023-05-15T06:26:37.732Z,0.68
2023-05-15T06:29:04.375Z,0.73
2023-05-15T06:31:31.016Z,0.70
2023-05-15T06:33:57.724Z,0.90
2023-05-15T06:36:24.416Z,0.80
2023-05-15T06:38:50.946Z,0.70
2023-05-15T06:41:17.480Z,0.57
2023-05-15T06:43:45.458Z,0.70
2023-05-15T06:46:12.050Z,0.73
2023-05-15T06:48:38.709Z,0.60
2023-05-15T06:51:05.572Z,0.60
2023-05-15T06:53:32.235Z,0.80
2023-05-15T06:55:58.914Z,0.77
2023-05-15T06:58:25.806Z,0.70
2023-05-15T07:00:54.160Z,0.60
2023-05-15T07:03:24.951Z,0.80
2023-05-15T07:05:55.318Z,0.70
2023-05-15T07:08:21.924Z,0.80
2023-05-15T07:10:49.322Z,0.70
2023-05-15T07:13:21.223Z,0.90
2023-05-15T07:15:47.987Z,1.00
2023-05-15T07:18:14.759Z,1.20
2023-05-15T07:20:41.514Z,0.88
2023-05-15T07:23:08.065Z,1.00
2023-05-15T07:25:34.648Z,1.00
2023-05-15T07:28:04.425Z,1.40
2023-05-15T07:30:30.936Z,1.10
2023-05-15T07:32:57.509Z,1.00
2023-05-15T07:35:24.236Z,1.67
2023-05-15T07:37:50.905Z,1.50
2023-05-15T07:40:17.532Z,1.50
2023-05-15T07:42:44.790Z,1.23
2023-05-15T07:45:11.512Z,1.50
2023-05-15T07:47:38.294Z,1.80
2023-05-15T07:50:08.238Z,1.67
2023-05-15T07:52:34.806Z,1.70
2023-05-15T07:55:01.425Z,1.70
2023-05-15T07:57:28.023Z,1.75
2023-05-15T07:59:54.562Z,2.15
2023-05-15T08:02:21.152Z,1.50
2023-05-15T08:04:47.865Z,1.90
2023-05-15T08:07:14.793Z,1.60
2023-05-15T08:09:41.897Z,1.70
2023-05-15T08:12:21.026Z,1.77
2023-05-15T08:14:54.899Z,1.40
2023-05-15T08:17:21.898Z,1.70
2023-05-15T08:19:48.913Z,1.40
2023-05-15T08:22:16.001Z,1.30
2023-05-15T08:24:42.922Z,1.40
2023-05-15T08:27:09.467Z,1.20
2023-05-15T08:29:39.206Z,1.20
2023-05-15T08:32:07.219Z,1.50
2023-05-15T08:34:33.918Z,1.50
2023-05-15T08:37:00.546Z,1.20
2023-05-15T08:39:27.212Z,1.40
2023-05-15T08:42:18.837Z,1.13
2023-05-15T08:44:45.815Z,1.10
2023-05-15T08:47:14.516Z,1.15
2023-05-15T08:50:08.407Z,1.10
2023-05-15T08:52:35.651Z,0.95
2023-05-15T08:55:03.950Z,1.15
2023-05-15T08:57:32.049Z,1.27
2023-05-15T08:59:59.434Z,0.90
2023-05-15T09:02:26.407Z,1.00
2023-05-15T09:04:53.089Z,1.20
2023-05-15T09:07:20.276Z,0.90
2023-05-15T09:09:47.667Z,1.13
2023-05-15T09:12:17.315Z,0.90
2023-05-15T09:14:44.309Z,1.17
2023-05-15T09:17:11.984Z,0.90
2023-05-15T09:19:40.383Z,1.20
2023-05-15T09:22:23.504Z,0.90
2023-05-15T09:24:53.157Z,1.10
2023-05-15T09:27:20.489Z,1.10
2023-05-15T09:29:47.420Z,1.10
2023-05-15T09:32:15.354Z,1.08
2023-05-15T09:34:44.044Z,1.10
2023-05-15T09:37:13.186Z,0.80
2023-05-15T09:39:44.321Z,0.90
2023-05-15T09:42:12.682Z,0.88
2023-05-15T09:44:46.083Z,1.20
2023-05-15T09:47:14.078Z,0.90
2023-05-15T09:49:44.248Z,1.00
2023-05-15T09:52:10.999Z,0.88
2023-05-15T09:54:38.531Z,1.10
2023-05-15T09:57:12.929Z,1.02
2023-05-15T09:59:47.477Z,1.00
2023-05-15T10:02:23.453Z,0.93
2023-05-15T10:04:59.467Z,0.75
2023-05-15T10:07:33.941Z,1.10
2023-05-15T10:10:02.653Z,1.00
2023-05-15T10:12:32.012Z,1.00
2023-05-15T10:15:01.091Z,1.02
2023-05-15T10:17:28.673Z,1.05
2023-05-15T10:19:59.180Z,0.90
2023-05-15T10:22:29.604Z,1.05
2023-05-15T10:25:29.216Z,0.95
2023-05-15T10:27:56.069Z,0.85
2023-05-15T10:30:23.572Z,1.00
2023-05-15T10:32:51.200Z,0.85
2023-05-15T10:35:17.853Z,1.00
2023-05-15T10:37:47.485Z,1.00
2023-05-15T10:40:16.229Z,0.95
2023-05-15T10:42:45.452Z,1.10
2023-05-15T10:45:12.181Z,0.90
2023-05-15T10:47:40.250Z,0.90
2023-05-15T10:50:07.463Z,0.80
2023-05-15T10:52:34.575Z,1.10
2023-05-15T10:55:01.588Z,0.90
2023-05-15T10:57:31.095Z,0.90
2023-05-15T10:59:57.753Z,0.80
2023-05-15T11:02:26.413Z,1.20
2023-05-15T11:05:02.049Z,0.90
2023-05-15T11:07:28.858Z,0.90
2023-05-15T11:09:58.411Z,0.80
2023-05-15T11:12:30.865Z,0.98
2023-05-15T11:14:57.391Z,0.80
2023-05-15T11:17:24.223Z,1.08
2023-05-15T11:19:53.121Z,0.80
2023-05-15T11:22:21.732Z,0.77
2023-05-15T11:25:02.470Z,0.70
2023-05-15T11:27:38.663Z,0.80
2023-05-15T11:30:06.914Z,0.70
2023-05-15T11:32:42.682Z,1.00
2023-05-15T11:35:14.439Z,0.90
2023-05-15T11:37:43.088Z,0.85
2023-05-15T11:40:33.890Z,0.90
2023-05-15T11:43:29.106Z,0.80
2023-05-15T11:46:00.535Z,0.88
2023-05-15T11:51:13.597Z,0.73
2023-05-15T11:53:40.526Z,0.90
2023-05-15T11:56:07.337Z,0.90
2023-05-15T11:58:34.004Z,0.80
2023-05-15T12:01:00.604Z,0.65
2023-05-15T12:03:32.746Z,0.90
2023-05-15T12:06:02.118Z,0.80
2023-05-15T12:08:33.413Z,0.80
2023-05-15T12:11:01.183Z,0.70
2023-05-15T12:13:27.850Z,0.85
2023-05-15T12:15:55.782Z,0.80
2023-05-15T12:18:22.809Z,1.00
2023-05-15T12:20:52.041Z,0.90
2023-05-15T12:23:21.269Z,0.80
2023-05-15T12:25:50.243Z,0.80
2023-05-15T12:28:16.911Z,0.90
2023-05-15T12:30:43.821Z,0.85
2023-05-15T12:33:10.883Z,0.90
2023-05-15T12:35:42.080Z,0.90
2023-05-15T12:38:09.227Z,0.90
2023-05-15T12:40:36.983Z,1.00
2023-05-15T12:43:07.650Z,1.02
2023-05-15T12:45:35.380Z,0.87
2023-05-15T12:48:02.409Z,1.30
2023-05-15T12:50:30.761Z,0.98
2023-05-15T12:52:58.634Z,1.20
2023-05-15T12:55:32.106Z,1.17
2023-05-15T12:58:02.303Z,1.20
2023-05-15T13:00:29.679Z,1.27
2023-05-15T13:02:57.576Z,1.13
2023-05-15T13:05:25.198Z,1.30
2023-05-15T13:07:52.644Z,1.10
2023-05-15T13:10:23.986Z,0.93
2023-05-15T13:12:52.658Z,1.13
2023-05-15T13:15:43.891Z,1.10
2023-05-15T13:18:18.306Z,1.20
2023-05-15T13:20:46.495Z,1.10
2023-05-15T13:23:16.195Z,0.90
2023-05-15T13:25:43.123Z,1.10
2023-05-15T13:28:13.245Z,1.20
2023-05-15T13:30:43.691Z,0.98
2023-05-15T13:33:11.804Z,1.00
2023-05-15T13:35:39.127Z,1.10
2023-05-15T13:38:05.889Z,1.00
2023-05-15T13:40:37.409Z,1.00
2023-05-15T13:43:04.163Z,1.00
2023-05-15T13:45:30.847Z,1.08
2023-05-15T13:47:57.462Z,1.20
2023-05-15T13:50:24.347Z,1.05
2023-05-15T13:52:51.156Z,1.23
2023-05-15T13:55:17.772Z,1.10
2023-05-15T13:57:45.361Z,1.00
2023-05-15T14:00:13.987Z,1.00
2023-05-15T14:02:44.238Z,1.05
2023-05-15T14:05:12.449Z,1.27
2023-05-15T14:07:39.354Z,1.08
2023-05-15T14:10:06.785Z,1.30
2023-05-15T14:12:37.219Z,1.33
2023-05-15T14:15:04.079Z,1.13
2023-05-15T14:17:30.793Z,0.90
2023-05-15T14:19:57.476Z,1.10
2023-05-15T14:22:25.076Z,1.25
2023-05-15T14:24:53.024Z,1.30
2023-05-15T14:27:19.760Z,1.10
2023-05-15T14:29:47.310Z,1.20
2023-05-15T14:32:13.859Z,1.20
2023-05-15T14:34:40.487Z,1.23
2023-05-15T14:37:07.250Z,1.00
2023-05-15T14:39:33.763Z,1.10
2023-05-15T14:42:00.319Z,1.50
2023-05-15T14:44:26.898Z,1.00
2023-05-15T14:47:13.000Z,1.10
2023-05-15T14:49:39.962Z,1.10
2023-05-15T14:52:08.481Z,1.27
2023-05-15T14:54:40.818Z,1.30
2023-05-15T14:57:07.968Z,1.27
2023-05-15T14:59:34.618Z,1.15
2023-05-15T15:02:01.412Z,1.10
2023-05-15T15:04:30.489Z,1.70
2023-05-15T15:06:57.315Z,1.40
2023-05-15T15:09:25.604Z,1.50
2023-05-15T15:11:53.810Z,1.48
2023-05-15T15:14:20.651Z,1.60
2023-05-15T15:16:47.499Z,1.20
2023-05-15T15:19:15.192Z,1.30
2023-05-15T15:21:43.560Z,1.38
2023-05-15T15:24:10.289Z,1.63
2023-05-15T15:26:36.845Z,1.30
2023-05-15T15:29:03.504Z,1.10
2023-05-15T15:31:30.440Z,1.27
2023-05-15T15:33:57.523Z,1.00
2023-05-15T15:36:25.111Z,1.35
2023-05-15T15:38:51.757Z,1.17
2023-05-15T15:41:18.364Z,1.00
2023-05-15T15:43:44.965Z,1.25
2023-05-15T15:46:11.646Z,1.10
2023-05-15T15:48:38.236Z,1.20
2023-05-15T15:51:05.546Z,1.15
2023-05-15T15:53:34.453Z,0.95
2023-05-15T15:56:01.554Z,1.20
2023-05-15T15:58:28.142Z,1.05
2023-05-15T16:00:54.782Z,0.93
2023-05-15T16:03:21.526Z,1.23
2023-05-15T16:05:48.290Z,1.58
2023-05-15T16:08:14.803Z,1.25
2023-05-15T16:10:41.446Z,1.50
2023-05-15T16:13:09.023Z,1.40
2023-05-15T16:15:35.559Z,1.45
2023-05-15T16:18:02.196Z,1.30
2023-05-15T16:20:29.202Z,1.30
2023-05-15T16:22:55.933Z,1.20
2023-05-15T16:25:22.641Z,1.20
2023-05-15T16:27:49.227Z,1.10
2023-05-15T16:30:15.885Z,1.30
2023-05-15T16:32:42.530Z,1.20
2023-05-15T16:35:09.433Z,1.30
2023-05-15T16:37:36.078Z,1.48
2023-05-15T16:40:03.883Z,1.50
2023-05-15T16:42:35.092Z,1.30
2023-05-15T16:45:01.706Z,1.10
2023-05-15T16:47:28.226Z,1.20
2023-05-15T16:49:57.609Z,1.00
2023-05-15T16:52:24.483Z,0.95
2023-05-15T16:54:51.386Z,0.93
2023-05-15T16:57:17.939Z,1.00
2023-05-15T16:59:44.582Z,0.90
2023-05-15T17:02:11.198Z,0.98
2023-05-15T17:04:37.858Z,1.00
2023-05-15T17:07:05.233Z,0.90
2023-05-15T17:09:32.842Z,0.95
2023-05-15T17:11:59.805Z,0.77
2023-05-15T17:14:26.608Z,0.95
2023-05-15T17:16:53.257Z,0.70
2023-05-15T17:19:19.906Z,0.85
2023-05-15T17:21:46.567Z,0.80
2023-05-15T17:24:15.016Z,0.68
2023-05-15T17:26:42.214Z,0.70
2023-05-15T17:29:08.980Z,0.80
2023-05-15T17:31:36.875Z,0.80
2023-05-15T17:34:03.492Z,0.88
2023-05-15T17:36:30.069Z,0.98
2023-05-15T17:38:56.642Z,1.00
2023-05-15T17:41:23.161Z,1.10
2023-05-15T17:43:49.852Z,1.00
2023-05-15T17:46:16.631Z,1.02
2023-05-15T17:48:43.248Z,1.15
2023-05-15T17:51:09.848Z,1.00
2023-05-15T17:53:36.540Z,1.10
2023-05-15T17:56:03.905Z,1.00
2023-05-15T17:58:30.470Z,1.13
2023-05-15T18:00:57.202Z,1.27
2023-05-15T18:03:23.956Z,1.30
2023-05-15T18:05:51.872Z,1.08
2023-05-15T18:08:18.863Z,1.00
2023-05-15T18:10:46.021Z,0.90
2023-05-15T18:13:12.872Z,1.05
2023-05-15T18:15:39.532Z,0.80
2023-05-15T18:18:06.412Z,0.98
2023-05-15T18:20:33.044Z,0.88
2023-05-15T18:22:59.609Z,0.80
2023-05-15T18:25:26.793Z,0.90
2023-05-15T18:27:53.718Z,0.80
2023-05-15T18:30:20.474Z,0.90
2023-05-15T18:32:47.157Z,1.00
2023-05-15T18:35:14.080Z,0.80
2023-05-15T18:37:40.660Z,0.90
2023-05-15T18:40:07.909Z,0.90
2023-05-15T18:42:34.616Z,1.15
2023-05-15T18:45:02.663Z,1.10
2023-05-15T18:47:29.356Z,0.90
2023-05-15T18:49:55.991Z,0.80
2023-05-15T18:52:22.712Z,1.00
2023-05-15T18:54:49.498Z,0.90
2023-05-15T18:57:16.063Z,1.00
2023-05-15T18:59:42.624Z,0.90
2023-05-15T19:02:12.224Z,0.90
2023-05-15T19:04:38.845Z,0.90
2023-05-15T19:07:05.872Z,0.77
2023-05-15T19:09:32.440Z,0.80
2023-05-15T19:12:02.953Z,1.00
2023-05-15T19:14:29.661Z,0.80
2023-05-15T19:16:56.391Z,0.90
2023-05-15T19:19:23.344Z,0.88
2023-05-15T19:21:51.914Z,0.85
2023-05-15T19:24:18.817Z,1.10
2023-05-15T19:26:45.494Z,0.90
2023-05-15T19:29:12.112Z,0.90
2023-05-15T19:31:39.273Z,0.95
2023-05-15T19:34:06.150Z,1.00
2023-05-15T19:36:32.915Z,1.08
2023-05-15T19:38:59.514Z,1.00
2023-05-15T19:41:26.344Z,0.85
2023-05-15T19:43:52.918Z,0.80
2023-05-15T19:46:20.059Z,1.00
2023-05-15T19:48:46.789Z,1.00
2023-05-15T19:51:13.552Z,1.17
2023-05-15T19:53:40.468Z,0.88
2023-05-15T19:56:07.166Z,0.90
2023-05-15T19:58:33.805Z,0.90
2023-05-15T20:01:00.529Z,0.90
2023-05-15T20:03:33.201Z,1.00
2023-05-15T20:06:01.437Z,0.90
2023-05-15T20:08:28.685Z,0.90
2023-05-15T20:10:55.279Z,0.80
2023-05-15T20:13:22.160Z,0.63
2023-05-15T20:16:00.060Z,0.70
2023-05-15T20:18:28.042Z,0.70
2023-05-15T20:20:54.736Z,0.77
2023-05-15T20:23:21.597Z,0.65
2023-05-15T20:25:49.684Z,0.63
2023-05-15T20:28:17.748Z,0.60
2023-05-15T20:30:47.210Z,0.70
2023-05-15T20:33:13.922Z,0.50
2023-05-15T20:35:40.544Z,0.80
2023-05-15T20:38:07.180Z,0.70
2023-05-15T20:40:33.683Z,0.70
2023-05-15T20:43:01.310Z,0.60
2023-05-15T20:45:28.082Z,0.70
2023-05-15T20:47:54.880Z,0.70
2023-05-15T20:50:21.476Z,0.60
2023-05-15T20:52:48.265Z,0.60
2023-05-15T20:55:16.363Z,0.60
2023-05-15T20:57:44.330Z,0.50
2023-05-15T21:00:11.918Z,0.50
2023-05-15T21:02:39.486Z,0.50
2023-05-15T21:05:06.505Z,0.60
2023-05-15T21:07:33.069Z,0.50
2023-05-15T21:09:59.731Z,0.55
2023-05-15T21:12:26.353Z,0.50
2023-05-15T21:14:52.847Z,0.50
2023-05-15T21:17:19.518Z,0.47
2023-05-15T21:19:48.381Z,0.40
2023-05-15T21:22:15.748Z,0.50
2023-05-15T21:24:42.347Z,0.60
2023-05-15T21:27:09.005Z,0.50
2023-05-15T21:29:35.967Z,0.50
2023-05-15T21:32:03.007Z,0.40
2023-05-15T21:34:29.581Z,0.50
2023-05-15T21:36:56.220Z,0.60
2023-05-15T21:39:22.816Z,0.50
2023-05-15T21:41:50.823Z,0.55
2023-05-15T21:44:17.411Z,0.60
2023-05-15T21:46:44.054Z,0.65
2023-05-15T21:49:10.824Z,0.50
2023-05-15T21:51:37.326Z,0.80
2023-05-15T21:54:04.455Z,0.60
2023-05-15T21:56:31.120Z,0.60
2023-05-15T21:58:57.649Z,0.50
2023-05-15T22:01:24.242Z,0.50
2023-05-15T22:03:50.933Z,0.60
2023-05-15T22:06:17.575Z,0.50
2023-05-15T22:08:44.117Z,0.47
2023-05-15T22:11:10.813Z,0.70
2023-05-15T22:13:37.754Z,0.70
2023-05-15T22:16:04.529Z,0.40
2023-05-15T22:18:31.559Z,0.65
2023-05-15T22:20:58.161Z,0.60
2023-05-15T22:23:24.722Z,0.63
2023-05-15T22:25:51.525Z,0.50
2023-05-15T22:28:18.153Z,0.60
2023-05-15T22:30:44.727Z,0.50
2023-05-15T22:33:11.326Z,0.63
2023-05-15T22:35:37.872Z,0.70
2023-05-15T22:38:06.926Z,0.50
2023-05-15T22:40:33.500Z,0.55
2023-05-15T22:43:00.067Z,0.50
2023-05-15T22:45:26.658Z,0.57
2023-05-15T22:47:53.439Z,0.60
2023-05-15T22:50:20.012Z,0.40
2023-05-15T22:52:46.610Z,0.50
2023-05-15T22:55:13.232Z,0.60
2023-05-15T22:57:39.932Z,0.50
2023-05-15T23:00:08.030Z,0.60
2023-05-15T23:02:36.973Z,0.80
2023-05-15T23:05:04.485Z,0.40
2023-05-15T23:07:31.296Z,0.50
2023-05-15T23:09:57.815Z,0.50
2023-05-15T23:12:24.370Z,0.50
2023-05-15T23:14:50.925Z,0.50
2023-05-15T23:17:17.583Z,0.50
2023-05-15T23:19:44.176Z,0.60
2023-05-15T23:22:11.558Z,0.50
2023-05-15T23:24:38.108Z,0.40
2023-05-15T23:27:05.695Z,0.52
2023-05-15T23:29:33.880Z,0.50
2023-05-15T23:32:00.656Z,0.60
2023-05-15T23:34:28.400Z,0.50
2023-05-15T23:36:55.066Z,0.50
2023-05-15T23:39:21.686Z,0.40
2023-05-15T23:41:48.409Z,0.60
2023-05-15T23:44:15.020Z,0.52
2023-05-15T23:46:41.644Z,0.40
2023-05-15T23:49:08.339Z,0.50
2023-05-15T23:51:35.025Z,0.45
2023-05-15T23:54:01.567Z,0.50
2023-05-15T23:56:28.408Z,0.60
2023-05-15T23:58:55.284Z,0.60
